Pacific Beach, Washington
Current Conditions -  °F | °C
As of 5:53 PM on Friday 28 Nov 2014 (Local Time) from KHQM Reporting Station
Broken Clouds Broken Clouds  
Wind Chill: 38°   Ceiling: 6000
Heat Index: 44°   Visibility: 8mi
Dew Point: 39°   Wind: 12mph
Humidity: 82%   Direction: 300°WNW
Pressure: 29.54"   Gusts: NA
Location:  47.21°N, 124.2°W
Report Text: KHQM 290153Z AUTO 30010KT 8SM FEW039 BKN060 07/04 A2954 RMK AO2 RAE06 SLP006 P0000 T00670039
Loading
Personal Weather Stations






























Interactive Weather Map New forecast layout! Learn more

10-Day Weather Forecast

Advertisements
Track Severe Weather on mobile